createdAt,value
2019-03-24T00:00:01.117Z,102091.48
2019-03-24T00:02:34.547Z,102086.11
2019-03-24T00:05:06.730Z,102087.02
2019-03-24T00:07:38.232Z,102083.03
2019-03-24T00:10:09.818Z,102087.50
2019-03-24T00:12:41.345Z,102087.06
2019-03-24T00:15:12.870Z,102088.88
2019-03-24T00:17:44.393Z,102087.09
2019-03-24T00:20:15.973Z,102090.66
2019-03-24T00:22:47.556Z,102086.19
2019-03-24T00:25:19.070Z,102086.70
2019-03-24T00:27:50.579Z,102096.61
2019-03-24T00:30:22.072Z,102093.92
2019-03-24T00:32:53.595Z,102097.11
2019-03-24T00:35:25.235Z,102101.14
2019-03-24T00:37:56.768Z,102100.73
2019-03-24T00:40:28.276Z,102096.27
2019-03-24T00:42:59.787Z,102094.45
2019-03-24T00:45:36.742Z,102101.17
2019-03-24T00:48:04.548Z,102101.61
2019-03-24T00:50:36.151Z,102102.08
2019-03-24T00:53:07.675Z,102102.58
2019-03-24T00:55:39.245Z,102103.45
2019-03-24T00:58:10.766Z,102101.23
2019-03-24T01:00:47.585Z,102108.48
2019-03-24T01:03:19.235Z,102102.67
2019-03-24T01:05:50.844Z,102103.55
2019-03-24T01:08:22.443Z,102108.48
2019-03-24T01:10:54.015Z,102114.75
2019-03-24T01:13:25.536Z,102109.34
2019-03-24T01:15:57.053Z,102108.00
2019-03-24T01:18:28.838Z,102111.16
2019-03-24T01:21:00.425Z,102108.09
2019-03-24T01:23:32.003Z,102117.95
2019-03-24T01:26:03.502Z,102121.97
2019-03-24T01:28:35.040Z,102124.19
2019-03-24T01:31:06.586Z,102118.36
2019-03-24T01:33:38.110Z,102124.63
2019-03-24T01:36:09.619Z,102129.56
2019-03-24T01:38:41.121Z,102126.85
2019-03-24T01:41:12.617Z,102130.45
2019-03-24T01:43:44.112Z,102129.07
2019-03-24T01:46:15.607Z,102127.70
2019-03-24T01:48:47.119Z,102130.88
2019-03-24T01:51:18.715Z,102128.64
2019-03-24T01:53:50.256Z,102137.59
2019-03-24T01:56:21.736Z,102133.53
2019-03-24T01:58:53.325Z,102131.34
2019-03-24T02:01:24.842Z,102129.97
2019-03-24T02:03:56.354Z,102126.82
2019-03-24T02:06:27.872Z,102122.83
2019-03-24T02:08:59.459Z,102118.36
2019-03-24T02:11:30.939Z,102124.14
2019-03-24T02:14:02.456Z,102117.46
2019-03-24T02:16:34.052Z,102115.27
2019-03-24T02:19:05.583Z,102113.92
2019-03-24T02:21:37.094Z,102113.48
2019-03-24T02:24:08.683Z,102116.14
2019-03-24T02:26:40.295Z,102120.16
2019-03-24T02:29:11.809Z,102127.36
2019-03-24T02:31:43.330Z,102119.31
2019-03-24T02:34:14.923Z,102126.45
2019-03-24T02:36:46.618Z,102116.62
2019-03-24T02:39:18.187Z,102127.38
2019-03-24T02:41:49.710Z,102127.84
2019-03-24T02:44:21.223Z,102130.95
2019-03-24T02:46:52.772Z,102131.82
2019-03-24T02:49:24.336Z,102134.97
2019-03-24T02:51:55.854Z,102134.98
2019-03-24T02:54:27.678Z,102135.45
2019-03-24T02:56:59.186Z,102129.19
2019-03-24T02:59:30.697Z,102137.20
2019-03-24T03:02:02.204Z,102130.55
2019-03-24T03:04:33.787Z,102133.25
2019-03-24T03:07:05.322Z,102138.59
2019-03-24T03:09:36.846Z,102131.49
2019-03-24T03:12:08.429Z,102128.82
2019-03-24T03:14:40.002Z,102132.36
2019-03-24T03:17:11.488Z,102123.05
2019-03-24T03:19:43.106Z,102117.19
2019-03-24T03:22:14.675Z,102116.28
2019-03-24T03:24:46.181Z,102110.01
2019-03-24T03:27:17.689Z,102107.38
2019-03-24T03:29:49.206Z,102101.98
2019-03-24T03:32:20.712Z,102104.64
2019-03-24T03:34:52.225Z,102100.19
2019-03-24T03:37:23.807Z,102105.55
2019-03-24T03:39:58.194Z,102107.83
2019-03-24T03:42:28.523Z,102112.34
2019-03-24T03:45:00.264Z,102115.45
2019-03-24T03:47:34.073Z,102114.16
2019-03-24T03:50:07.131Z,102116.38
2019-03-24T03:52:38.716Z,102112.83
2019-03-24T03:55:10.219Z,102108.84
2019-03-24T03:57:41.735Z,102108.40
2019-03-24T04:00:13.264Z,102110.19
2019-03-24T04:02:44.923Z,102110.61
2019-03-24T04:05:16.414Z,102111.97
2019-03-24T04:07:47.975Z,102116.45
2019-03-24T04:10:19.498Z,102112.03
2019-03-24T04:12:51.017Z,102113.37
2019-03-24T04:15:22.562Z,102108.47
2019-03-24T04:17:54.135Z,102112.05
2019-03-24T04:20:25.645Z,102117.42
2019-03-24T04:22:57.159Z,102114.75
2019-03-24T04:25:28.723Z,102120.98
2019-03-24T04:28:00.239Z,102124.60
2019-03-24T04:30:31.882Z,102117.90
2019-03-24T04:33:03.400Z,102120.12
2019-03-24T04:35:34.975Z,102126.82
2019-03-24T04:38:06.492Z,102121.91
2019-03-24T04:40:38.007Z,102116.98
2019-03-24T04:43:09.517Z,102110.72
2019-03-24T04:45:41.044Z,102109.39
2019-03-24T04:48:12.630Z,102110.72
2019-03-24T04:50:44.119Z,102121.48
2019-03-24T04:53:15.706Z,102122.84
2019-03-24T04:55:47.307Z,102124.17
2019-03-24T04:58:18.866Z,102132.19
2019-03-24T05:00:50.446Z,102122.83
2019-03-24T05:03:21.958Z,102125.92
2019-03-24T05:05:53.450Z,102121.45
2019-03-24T05:08:25.047Z,102125.45
2019-03-24T05:10:56.527Z,102119.22
2019-03-24T05:13:28.139Z,102113.39
2019-03-24T05:15:59.635Z,102108.01
2019-03-24T05:18:31.222Z,102103.09
2019-03-24T05:21:02.820Z,102116.03
2019-03-24T05:23:34.324Z,102116.89
2019-03-24T05:26:05.831Z,102106.59
2019-03-24T05:28:37.399Z,102113.73
2019-03-24T05:31:08.961Z,102105.65
2019-03-24T05:33:40.564Z,102105.56
2019-03-24T05:36:12.130Z,102108.17
2019-03-24T05:38:43.695Z,102108.17
2019-03-24T05:41:15.262Z,102122.43
2019-03-24T05:43:47.326Z,102125.95
2019-03-24T05:46:18.994Z,102118.36
2019-03-24T05:48:50.584Z,102122.74
2019-03-24T05:51:22.295Z,102127.56
2019-03-24T05:53:53.794Z,102122.05
2019-03-24T05:56:25.314Z,102126.34
2019-03-24T05:58:56.830Z,102115.91
2019-03-24T06:01:28.331Z,102106.38
2019-03-24T06:03:59.838Z,102113.31
2019-03-24T06:06:31.396Z,102116.77
2019-03-24T06:09:02.901Z,102118.49
2019-03-24T06:11:34.535Z,102113.29
2019-03-24T06:14:06.195Z,102104.44
2019-03-24T06:16:38.042Z,102104.69
2019-03-24T06:19:09.654Z,102100.17
2019-03-24T06:21:41.188Z,102102.61
2019-03-24T06:24:12.784Z,102089.08
2019-03-24T06:26:44.408Z,102097.72
2019-03-24T06:29:15.934Z,102080.34
2019-03-24T06:31:47.449Z,102080.87
2019-03-24T06:34:18.984Z,102087.55
2019-03-24T06:36:50.570Z,102087.45
2019-03-24T06:39:22.092Z,102087.47
2019-03-24T06:41:53.620Z,102086.77
2019-03-24T06:44:25.148Z,102088.90
2019-03-24T06:46:56.735Z,102085.45
2019-03-24T06:49:28.353Z,102085.58
2019-03-24T06:51:59.857Z,102081.58
2019-03-24T06:54:31.375Z,102081.83
2019-03-24T06:57:02.952Z,102083.08
2019-03-24T06:59:34.490Z,102077.19
2019-03-24T07:02:06.131Z,102085.00
2019-03-24T07:04:37.709Z,102084.83
2019-03-24T07:07:09.233Z,102084.67
2019-03-24T07:09:40.840Z,102079.14
2019-03-24T07:12:12.342Z,102078.17
2019-03-24T07:14:43.916Z,102081.18
2019-03-24T07:17:15.496Z,102076.80
2019-03-24T07:19:47.092Z,102073.02
2019-03-24T07:22:18.772Z,102074.97
2019-03-24T07:24:50.305Z,102074.63
2019-03-24T07:27:21.895Z,102075.91
2019-03-24T07:29:53.402Z,102077.35
2019-03-24T07:32:24.912Z,102077.45
2019-03-24T07:34:56.451Z,102069.79
2019-03-24T07:37:28.032Z,102069.84
2019-03-24T07:39:59.638Z,102067.20
2019-03-24T07:42:31.140Z,102064.65
2019-03-24T07:45:02.674Z,102067.85
2019-03-24T07:47:34.345Z,102073.39
2019-03-24T07:50:09.082Z,102071.00
2019-03-24T07:52:40.583Z,102065.50
2019-03-24T07:55:14.816Z,102067.64
2019-03-24T07:57:46.461Z,102068.41
2019-03-24T08:00:34.638Z,102063.32
2019-03-24T08:03:06.224Z,102072.52
2019-03-24T08:05:37.712Z,102065.56
2019-03-24T08:08:09.240Z,102058.84
2019-03-24T08:10:40.754Z,102052.38
2019-03-24T08:13:12.377Z,102059.37
2019-03-24T08:15:47.855Z,102051.80
2019-03-24T08:18:29.296Z,102043.23
2019-03-24T08:20:56.822Z,102036.24
2019-03-24T08:23:28.501Z,102028.25
2019-03-24T08:26:01.649Z,102026.27
2019-03-24T08:28:33.145Z,102020.25
2019-03-24T08:31:04.740Z,102016.04
2019-03-24T08:33:36.397Z,102016.30
2019-03-24T08:36:07.933Z,102017.69
2019-03-24T08:38:39.645Z,102013.26
2019-03-24T08:41:11.160Z,102006.59
2019-03-24T08:43:42.716Z,102006.50
2019-03-24T08:46:14.391Z,102005.00
2019-03-24T08:48:45.984Z,101995.20
2019-03-24T08:51:17.513Z,101995.17
2019-03-24T08:53:49.029Z,101994.20
2019-03-24T08:56:20.564Z,101999.52
2019-03-24T08:58:52.062Z,101992.76
2019-03-24T09:01:23.595Z,101983.72
2019-03-24T09:03:55.091Z,101980.14
2019-03-24T09:06:26.625Z,101979.95
2019-03-24T09:08:58.160Z,101976.89
2019-03-24T09:11:31.439Z,101965.48
2019-03-24T09:14:02.880Z,101966.66
2019-03-24T09:16:34.363Z,101962.70
2019-03-24T09:19:05.880Z,101945.28
2019-03-24T09:21:37.498Z,101949.33
2019-03-24T09:24:09.023Z,101953.52
2019-03-24T09:26:40.633Z,101942.69
2019-03-24T09:29:12.191Z,101941.75
2019-03-24T09:31:43.797Z,101940.85
2019-03-24T09:34:15.283Z,101940.66
2019-03-24T09:36:46.891Z,101939.88
2019-03-24T09:39:18.380Z,101942.17
2019-03-24T09:41:49.983Z,101934.95
2019-03-24T09:44:21.507Z,101938.98
2019-03-24T09:46:53.025Z,101935.30
2019-03-24T09:49:24.578Z,101930.78
2019-03-24T09:51:56.089Z,101925.52
2019-03-24T09:54:27.594Z,101912.30
2019-03-24T09:56:59.083Z,101914.80
2019-03-24T09:59:30.708Z,101907.10
2019-03-24T10:02:02.220Z,101909.34
2019-03-24T10:04:33.736Z,101913.98
2019-03-24T10:07:05.283Z,101900.48
2019-03-24T10:09:36.795Z,101900.05
2019-03-24T10:12:08.370Z,101898.02
2019-03-24T10:14:39.948Z,101891.06
2019-03-24T10:17:11.451Z,101888.03
2019-03-24T10:19:42.966Z,101883.02
2019-03-24T10:22:15.513Z,101874.37
2019-03-24T10:24:47.079Z,101881.55
2019-03-24T10:27:18.673Z,101865.47
2019-03-24T10:29:50.179Z,101872.42
2019-03-24T10:32:21.705Z,101867.18
2019-03-24T10:34:53.217Z,101869.29
2019-03-24T10:37:24.732Z,101861.33
2019-03-24T10:39:56.317Z,101856.13
2019-03-24T10:42:27.828Z,101856.68
2019-03-24T10:44:59.337Z,101851.86
2019-03-24T10:47:30.851Z,101845.75
2019-03-24T10:50:02.387Z,101831.98
2019-03-24T10:52:34.017Z,101830.27
2019-03-24T10:55:10.964Z,101821.50
2019-03-24T10:57:42.522Z,101824.17
2019-03-24T11:00:14.817Z,101825.47
2019-03-24T11:02:48.125Z,101820.16
2019-03-24T11:05:19.703Z,101821.23
2019-03-24T11:07:51.229Z,101818.00
2019-03-24T11:10:22.828Z,101816.28
2019-03-24T11:12:54.344Z,101812.55
2019-03-24T11:15:25.908Z,101803.41
2019-03-24T11:17:57.441Z,101805.90
2019-03-24T11:20:30.799Z,101791.02
2019-03-24T11:23:02.376Z,101792.30
2019-03-24T11:25:33.900Z,101788.60
2019-03-24T11:28:05.413Z,101789.47
2019-03-24T11:30:36.917Z,101782.78
2019-03-24T11:33:08.439Z,101783.28
2019-03-24T11:35:39.941Z,101775.53
2019-03-24T11:38:11.521Z,101763.70
2019-03-24T11:40:43.037Z,101761.34
2019-03-24T11:43:15.511Z,101760.76
2019-03-24T11:45:47.025Z,101755.20
2019-03-24T11:48:18.542Z,101753.77
2019-03-24T11:50:50.080Z,101755.00
2019-03-24T11:53:21.594Z,101752.29
2019-03-24T11:55:53.207Z,101745.70
2019-03-24T11:58:24.729Z,101747.77
2019-03-24T12:00:56.235Z,101738.19
2019-03-24T12:03:27.822Z,101734.39
2019-03-24T12:05:59.326Z,101735.09
2019-03-24T12:08:30.852Z,101725.34
2019-03-24T12:11:02.461Z,101722.41
2019-03-24T12:13:34.024Z,101709.76
2019-03-24T12:16:05.531Z,101702.47
2019-03-24T12:18:37.041Z,101708.13
2019-03-24T12:21:08.641Z,101701.69
2019-03-24T12:23:40.262Z,101699.98
2019-03-24T12:26:11.777Z,101694.77
2019-03-24T12:28:43.286Z,101684.63
2019-03-24T12:31:14.852Z,101686.66
2019-03-24T12:33:46.353Z,101681.77
2019-03-24T12:36:17.944Z,101679.16
2019-03-24T12:38:49.633Z,101679.23
2019-03-24T12:41:21.195Z,101672.92
2019-03-24T12:43:52.703Z,101665.70
2019-03-24T12:46:24.219Z,101664.09
2019-03-24T12:48:55.797Z,101662.73
2019-03-24T12:51:27.311Z,101658.48
2019-03-24T12:53:58.828Z,101651.34
2019-03-24T12:56:30.392Z,101639.96
2019-03-24T12:59:01.910Z,101637.45
2019-03-24T13:01:33.421Z,101632.83
2019-03-24T13:04:04.907Z,101630.61
2019-03-24T13:06:36.420Z,101629.19
2019-03-24T13:09:08.472Z,101625.33
2019-03-24T13:11:39.980Z,101619.12
2019-03-24T13:14:11.614Z,101620.86
2019-03-24T13:16:43.206Z,101616.17
2019-03-24T13:19:14.721Z,101609.78
2019-03-24T13:21:46.347Z,101603.94
2019-03-24T13:24:17.870Z,101603.64
2019-03-24T13:26:49.368Z,101598.23
2019-03-24T13:29:20.898Z,101597.00
2019-03-24T13:31:52.388Z,101596.20
2019-03-24T13:34:24.001Z,101592.27
2019-03-24T13:36:55.478Z,101589.98
2019-03-24T13:39:26.991Z,101588.39
2019-03-24T13:41:58.506Z,101584.44
2019-03-24T13:44:30.054Z,101590.53
2019-03-24T13:47:01.624Z,101581.67
2019-03-24T13:49:33.132Z,101575.85
2019-03-24T13:52:04.758Z,101567.17
2019-03-24T13:54:36.274Z,101566.38
2019-03-24T13:57:07.820Z,101550.91
2019-03-24T13:59:39.310Z,101553.38
2019-03-24T14:02:10.904Z,101545.89
2019-03-24T14:04:42.466Z,101547.31
2019-03-24T14:07:14.949Z,101539.87
2019-03-24T14:09:46.537Z,101534.63
2019-03-24T14:12:18.024Z,101528.92
2019-03-24T14:14:50.496Z,101523.84
2019-03-24T14:17:22.099Z,101523.55
2019-03-24T14:19:53.698Z,101523.20
2019-03-24T14:22:25.195Z,101516.52
2019-03-24T14:24:56.709Z,101509.16
2019-03-24T14:27:28.238Z,101509.62
2019-03-24T14:29:59.848Z,101510.02
2019-03-24T14:32:31.370Z,101505.75
2019-03-24T14:35:02.887Z,101496.20
2019-03-24T14:37:34.398Z,101489.38
2019-03-24T14:40:07.240Z,101484.33
2019-03-24T14:42:38.741Z,101486.28
2019-03-24T14:45:10.411Z,101474.38
2019-03-24T14:47:41.911Z,101476.45
2019-03-24T14:50:13.495Z,101480.77
2019-03-24T14:52:44.955Z,101472.34
2019-03-24T14:55:16.472Z,101469.03
2019-03-24T14:57:48.056Z,101472.44
2019-03-24T15:00:42.720Z,101471.91
2019-03-24T15:03:14.288Z,101465.72
2019-03-24T15:05:45.866Z,101458.66
2019-03-24T15:08:17.458Z,101456.25
2019-03-24T15:10:48.982Z,101453.38
2019-03-24T15:13:20.508Z,101450.66
2019-03-24T15:15:52.026Z,101447.70
2019-03-24T15:18:23.615Z,101442.43
2019-03-24T15:21:05.177Z,101433.69
2019-03-24T15:23:28.531Z,101437.21
2019-03-24T15:26:01.181Z,101432.19
2019-03-24T15:28:33.772Z,101432.55
2019-03-24T15:31:05.293Z,101430.13
2019-03-24T15:33:36.807Z,101427.55
2019-03-24T15:36:08.409Z,101429.09
2019-03-24T15:38:39.990Z,101434.20
2019-03-24T15:41:11.522Z,101427.45
2019-03-24T15:43:43.036Z,101433.54
2019-03-24T15:46:14.562Z,101426.63
2019-03-24T15:48:46.068Z,101429.09
2019-03-24T15:51:17.673Z,101420.69
2019-03-24T15:53:49.276Z,101411.62
2019-03-24T15:56:20.781Z,101417.70
2019-03-24T15:58:52.364Z,101410.81
2019-03-24T16:01:23.873Z,101411.70
2019-03-24T16:03:55.461Z,101406.55
2019-03-24T16:06:27.039Z,101404.94
2019-03-24T16:08:58.590Z,101399.53
2019-03-24T16:11:30.322Z,101400.77
2019-03-24T16:14:01.835Z,101398.47
2019-03-24T16:16:33.350Z,101400.89
2019-03-24T16:19:04.853Z,101398.11
2019-03-24T16:21:36.371Z,101396.22
2019-03-24T16:24:07.953Z,101392.13
2019-03-24T16:26:39.463Z,101399.78
2019-03-24T16:29:11.108Z,101383.55
2019-03-24T16:31:42.626Z,101372.29
2019-03-24T16:34:14.115Z,101374.84
2019-03-24T16:36:48.396Z,101365.86
2019-03-24T16:39:19.939Z,101372.26
2019-03-24T16:41:54.580Z,101375.66
2019-03-24T16:44:26.069Z,101373.82
2019-03-24T16:46:57.581Z,101366.41
2019-03-24T16:49:29.090Z,101366.56
2019-03-24T16:52:00.604Z,101363.75
2019-03-24T16:54:32.091Z,101363.33
2019-03-24T16:57:03.608Z,101349.29
2019-03-24T16:59:35.123Z,101344.38
2019-03-24T17:02:06.688Z,101341.87
2019-03-24T17:04:38.175Z,101335.96
2019-03-24T17:07:09.687Z,101338.02
2019-03-24T17:09:41.204Z,101340.83
2019-03-24T17:12:12.778Z,101341.70
2019-03-24T17:14:44.354Z,101341.86
2019-03-24T17:17:15.915Z,101338.56
2019-03-24T17:19:47.524Z,101340.64
2019-03-24T17:22:19.031Z,101349.05
2019-03-24T17:24:50.584Z,101344.30
2019-03-24T17:27:22.114Z,101342.49
2019-03-24T17:29:53.702Z,101341.55
2019-03-24T17:32:25.247Z,101337.57
2019-03-24T17:34:56.737Z,101341.55
2019-03-24T17:37:29.998Z,101339.06
2019-03-24T17:40:01.691Z,101340.45
2019-03-24T17:42:34.764Z,101340.70
2019-03-24T17:45:10.954Z,101337.48
2019-03-24T17:47:42.536Z,101340.95
2019-03-24T17:50:14.210Z,101343.75
2019-03-24T17:52:46.162Z,101339.05
2019-03-24T17:55:27.203Z,101332.94
2019-03-24T17:57:51.052Z,101337.39
2019-03-24T18:00:41.657Z,101334.87
2019-03-24T18:03:13.332Z,101334.56
2019-03-24T18:05:44.983Z,101331.72
2019-03-24T18:08:16.493Z,101331.45
2019-03-24T18:10:48.007Z,101322.18
2019-03-24T18:13:20.504Z,101324.83
2019-03-24T18:15:52.017Z,101323.39
2019-03-24T18:18:23.547Z,101324.15
2019-03-24T18:20:55.140Z,101328.02
2019-03-24T18:23:26.661Z,101324.97
2019-03-24T18:25:58.189Z,101324.81
2019-03-24T18:28:29.688Z,101322.61
2019-03-24T18:31:01.344Z,101322.96
2019-03-24T18:33:32.949Z,101318.83
2019-03-24T18:36:04.563Z,101319.50
2019-03-24T18:38:36.147Z,101324.86
2019-03-24T18:41:07.713Z,101315.23
2019-03-24T18:43:39.301Z,101311.45
2019-03-24T18:46:10.870Z,101305.77
2019-03-24T18:48:42.363Z,101309.39
2019-03-24T18:51:13.951Z,101303.33
2019-03-24T18:53:46.843Z,101300.76
2019-03-24T18:56:18.380Z,101301.84
2019-03-24T18:58:49.906Z,101303.45
2019-03-24T19:01:21.442Z,101296.55
2019-03-24T19:03:52.960Z,101296.73
2019-03-24T19:06:24.552Z,101297.69
2019-03-24T19:08:56.078Z,101291.70
2019-03-24T19:11:27.702Z,101281.98
2019-03-24T19:13:59.445Z,101280.61
2019-03-24T19:16:31.058Z,101285.45
2019-03-24T19:19:02.630Z,101287.14
2019-03-24T19:21:34.652Z,101290.56
2019-03-24T19:24:06.316Z,101288.83
2019-03-24T19:26:40.330Z,101278.69
2019-03-24T19:29:11.994Z,101285.53
2019-03-24T19:31:43.641Z,101281.55
2019-03-24T19:34:15.215Z,101286.69
2019-03-24T19:36:46.801Z,101284.00
2019-03-24T19:39:18.335Z,101286.69
2019-03-24T19:41:51.715Z,101287.92
2019-03-24T19:44:23.288Z,101280.64
2019-03-24T19:46:55.847Z,101286.97
2019-03-24T19:49:27.353Z,101284.87
2019-03-24T19:51:58.874Z,101273.19
2019-03-24T19:54:30.423Z,101278.45
2019-03-24T19:57:02.113Z,101275.59
2019-03-24T19:59:33.759Z,101268.17
2019-03-24T20:02:05.245Z,101264.70
2019-03-24T20:04:36.812Z,101269.48
2019-03-24T20:07:08.371Z,101261.84
2019-03-24T20:09:39.965Z,101264.81
2019-03-24T20:12:11.616Z,101264.02
2019-03-24T20:14:43.196Z,101253.63
2019-03-24T20:17:14.779Z,101253.90
2019-03-24T20:19:46.305Z,101252.19
2019-03-24T20:22:17.841Z,101252.21
2019-03-24T20:24:49.484Z,101247.37
2019-03-24T20:27:21.064Z,101239.59
2019-03-24T20:29:52.585Z,101242.34
2019-03-24T20:32:25.165Z,101231.31
2019-03-24T20:34:56.734Z,101229.63
2019-03-24T20:37:28.242Z,101229.81
2019-03-24T20:39:59.746Z,101234.36
2019-03-24T20:42:31.255Z,101229.99
2019-03-24T20:45:04.518Z,101225.47
2019-03-24T20:47:36.156Z,101218.92
2019-03-24T20:50:10.737Z,101214.94
2019-03-24T20:52:42.267Z,101216.37
2019-03-24T20:55:13.903Z,101215.19
2019-03-24T20:57:45.463Z,101219.62
2019-03-24T21:00:21.465Z,101214.69
2019-03-24T21:02:53.042Z,101213.70
2019-03-24T21:05:24.621Z,101206.59
2019-03-24T21:07:56.216Z,101197.48
2019-03-24T21:10:27.725Z,101199.67
2019-03-24T21:12:59.301Z,101200.59
2019-03-24T21:15:30.877Z,101200.06
2019-03-24T21:18:02.383Z,101181.37
2019-03-24T21:20:33.960Z,101182.63
2019-03-24T21:23:05.667Z,101175.09
2019-03-24T21:25:37.181Z,101176.41
2019-03-24T21:28:08.697Z,101178.36
2019-03-24T21:30:41.332Z,101177.62
2019-03-24T21:33:13.999Z,101169.17
2019-03-24T21:35:45.587Z,101166.01
2019-03-24T21:38:17.110Z,101166.67
2019-03-24T21:40:48.640Z,101164.95
2019-03-24T21:43:20.155Z,101157.81
2019-03-24T21:45:51.659Z,101159.95
2019-03-24T21:48:23.244Z,101160.56
2019-03-24T21:50:54.803Z,101161.89
2019-03-24T21:53:26.370Z,101157.83
2019-03-24T21:55:57.871Z,101163.55
2019-03-24T21:58:29.540Z,101160.05
2019-03-24T22:01:01.066Z,101155.23
2019-03-24T22:03:32.640Z,101154.36
2019-03-24T22:06:04.216Z,101156.59
2019-03-24T22:08:35.795Z,101157.70
2019-03-24T22:11:07.380Z,101150.75
2019-03-24T22:13:39.035Z,101148.92
2019-03-24T22:16:10.595Z,101149.98
2019-03-24T22:18:42.959Z,101147.72
2019-03-24T22:21:15.561Z,101137.02
2019-03-24T22:23:52.163Z,101135.97
2019-03-24T22:26:20.406Z,101132.13
2019-03-24T22:28:51.922Z,101137.75
2019-03-24T22:31:23.454Z,101135.97
2019-03-24T22:33:55.027Z,101129.29
2019-03-24T22:36:26.576Z,101123.67
2019-03-24T22:38:58.081Z,101115.77
2019-03-24T22:41:31.235Z,101111.13
2019-03-24T22:44:02.803Z,101115.14
2019-03-24T22:46:34.304Z,101115.22
2019-03-24T22:49:05.798Z,101108.33
2019-03-24T22:51:37.450Z,101107.56
2019-03-24T22:54:08.965Z,101107.05
2019-03-24T22:56:41.550Z,101108.73
2019-03-24T22:59:13.118Z,101115.18
2019-03-24T23:01:45.791Z,101113.41
2019-03-24T23:04:17.358Z,101113.33
2019-03-24T23:06:48.867Z,101115.65
2019-03-24T23:09:20.386Z,101109.77
2019-03-24T23:11:51.886Z,101091.94
2019-03-24T23:14:23.422Z,101095.53
2019-03-24T23:16:54.937Z,101092.38
2019-03-24T23:19:26.534Z,101086.30
2019-03-24T23:21:58.132Z,101082.40
2019-03-24T23:24:29.736Z,101075.36
2019-03-24T23:27:01.335Z,101074.55
2019-03-24T23:29:32.857Z,101072.38
2019-03-24T23:32:04.511Z,101067.51
2019-03-24T23:34:37.043Z,101067.45
2019-03-24T23:37:08.584Z,101069.63
2019-03-24T23:39:40.223Z,101061.69
2019-03-24T23:42:11.729Z,101063.02
2019-03-24T23:44:43.241Z,101062.22
2019-03-24T23:47:14.759Z,101057.47
2019-03-24T23:49:46.274Z,101063.80
2019-03-24T23:52:17.839Z,101057.07
2019-03-24T23:54:49.493Z,101047.16
2019-03-24T23:57:21.988Z,101039.98
2019-03-24T23:59:53.507Z,101037.26
